createdAt,value
2023-02-11T00:00:20.254Z,62.63
2023-02-11T00:00:52.049Z,62.73
2023-02-11T00:01:32.809Z,63.20
2023-02-11T00:02:05.375Z,63.43
2023-02-11T00:02:37.210Z,63.20
2023-02-11T00:03:09.561Z,63.93
2023-02-11T00:03:41.374Z,61.07
2023-02-11T00:04:13.519Z,59.87
2023-02-11T00:04:45.190Z,61.30
2023-02-11T00:05:16.919Z,61.60
2023-02-11T00:06:03.276Z,61.30
2023-02-11T00:06:36.427Z,61.93
2023-02-11T00:07:08.100Z,60.10
2023-02-11T00:07:39.793Z,59.93
2023-02-11T00:08:16.966Z,61.77
2023-02-11T00:08:48.735Z,63.00
2023-02-11T00:09:20.423Z,60.63
2023-02-11T00:09:52.128Z,61.00
2023-02-11T00:10:23.770Z,59.97
2023-02-11T00:10:57.353Z,60.97
2023-02-11T00:11:30.570Z,61.30
2023-02-11T00:12:02.338Z,61.33
2023-02-11T00:12:35.501Z,60.10
2023-02-11T00:13:07.160Z,60.63
2023-02-11T00:13:38.823Z,60.33
2023-02-11T00:14:11.775Z,59.37
2023-02-11T00:14:43.515Z,60.60
2023-02-11T00:15:15.266Z,62.90
2023-02-11T00:15:47.081Z,63.43
2023-02-11T00:16:21.251Z,63.70
2023-02-11T00:16:53.008Z,61.73
2023-02-11T00:17:24.876Z,61.90
2023-02-11T00:17:56.541Z,61.30
2023-02-11T00:18:28.831Z,59.90
2023-02-11T00:19:02.336Z,61.53
2023-02-11T00:19:34.031Z,60.27
2023-02-11T00:20:08.225Z,60.50
2023-02-11T00:20:40.301Z,61.63
2023-02-11T00:21:14.689Z,63.23
2023-02-11T00:21:46.376Z,63.27
2023-02-11T00:22:18.820Z,62.13
2023-02-11T00:22:50.471Z,61.03
2023-02-11T00:23:22.135Z,60.87
2023-02-11T00:23:57.290Z,61.67
2023-02-11T00:24:30.172Z,61.80
2023-02-11T00:25:01.911Z,61.60
2023-02-11T00:25:33.658Z,62.47
2023-02-11T00:26:15.622Z,61.43
2023-02-11T00:26:47.294Z,62.10
2023-02-11T00:27:19.138Z,63.53
2023-02-11T00:27:50.802Z,65.60
2023-02-11T00:28:22.540Z,62.43
2023-02-11T00:28:54.322Z,62.90
2023-02-11T00:29:25.979Z,62.97
2023-02-11T00:29:57.752Z,61.57
2023-02-11T00:30:29.462Z,61.57
2023-02-11T00:31:02.570Z,62.27
2023-02-11T00:31:34.958Z,63.63
2023-02-11T00:32:08.879Z,63.47
2023-02-11T00:32:42.635Z,60.70
2023-02-11T00:33:14.300Z,63.63
2023-02-11T00:33:46.975Z,64.77
2023-02-11T00:34:18.701Z,64.17
2023-02-11T00:34:52.569Z,64.53
2023-02-11T00:35:24.235Z,64.60
2023-02-11T00:35:55.898Z,63.67
2023-02-11T00:36:29.119Z,65.87
2023-02-11T00:37:00.933Z,63.20
2023-02-11T00:37:36.409Z,62.70
2023-02-11T00:38:08.064Z,62.33
2023-02-11T00:38:39.765Z,63.63
2023-02-11T00:39:11.451Z,62.07
2023-02-11T00:39:43.136Z,62.57
2023-02-11T00:40:16.115Z,61.70
2023-02-11T00:40:48.500Z,61.83
2023-02-11T00:41:20.914Z,61.20
2023-02-11T00:41:52.575Z,60.37
2023-02-11T00:42:24.312Z,61.50
2023-02-11T00:42:55.949Z,61.00
2023-02-11T00:43:27.665Z,60.00
2023-02-11T00:44:00.234Z,61.37
2023-02-11T00:44:31.921Z,59.93
2023-02-11T00:45:04.650Z,59.50
2023-02-11T00:45:36.363Z,60.67
2023-02-11T00:46:09.091Z,60.37
2023-02-11T00:46:40.858Z,61.13
2023-02-11T00:47:12.748Z,60.63
2023-02-11T00:47:44.430Z,61.13
2023-02-11T00:48:16.193Z,61.83
2023-02-11T00:48:48.118Z,62.33
2023-02-11T00:49:19.765Z,62.93
2023-02-11T00:49:51.453Z,62.70
2023-02-11T00:50:23.706Z,61.47
2023-02-11T00:50:55.415Z,60.57
2023-02-11T00:51:28.916Z,61.73
2023-02-11T00:52:00.835Z,60.53
2023-02-11T00:52:32.893Z,61.27
2023-02-11T00:53:04.717Z,60.73
2023-02-11T00:53:36.896Z,60.43
2023-02-11T00:54:08.734Z,59.90
2023-02-11T00:54:40.647Z,58.17
2023-02-11T00:55:12.382Z,59.10
2023-02-11T00:55:44.045Z,59.70
2023-02-11T00:56:15.785Z,61.50
2023-02-11T00:56:47.479Z,59.93
2023-02-11T00:57:19.246Z,58.07
2023-02-11T00:57:51.014Z,59.03
2023-02-11T00:58:22.955Z,58.27
2023-02-11T00:58:54.605Z,58.60
2023-02-11T00:59:26.261Z,59.50
2023-02-11T00:59:57.897Z,58.37
2023-02-11T01:00:29.754Z,59.90
2023-02-11T01:01:01.430Z,60.63
2023-02-11T01:01:33.239Z,60.77
2023-02-11T01:02:04.920Z,60.00
2023-02-11T01:02:36.580Z,60.80
2023-02-11T01:03:08.240Z,61.47
2023-02-11T01:03:40.689Z,59.73
2023-02-11T01:04:12.423Z,59.33
2023-02-11T01:04:44.060Z,59.73
2023-02-11T01:05:15.928Z,59.93
2023-02-11T01:05:47.772Z,59.03
2023-02-11T01:06:19.578Z,58.23
2023-02-11T01:06:51.278Z,61.50
2023-02-11T01:07:23.245Z,60.37
2023-02-11T01:07:54.936Z,59.73
2023-02-11T01:08:27.088Z,59.60
2023-02-11T01:08:58.780Z,60.67
2023-02-11T01:09:30.747Z,60.33
2023-02-11T01:10:02.461Z,59.87
2023-02-11T01:10:34.203Z,58.63
2023-02-11T01:11:11.987Z,58.70
2023-02-11T01:11:44.057Z,58.90
2023-02-11T01:12:15.721Z,59.63
2023-02-11T01:12:47.884Z,60.20
2023-02-11T01:13:19.529Z,58.43
2023-02-11T01:13:51.420Z,59.13
2023-02-11T01:14:23.419Z,59.33
2023-02-11T01:14:55.126Z,58.47
2023-02-11T01:15:26.886Z,59.70
2023-02-11T01:15:59.164Z,59.47
2023-02-11T01:16:30.910Z,59.63
2023-02-11T01:17:05.448Z,58.57
2023-02-11T01:17:38.241Z,59.40
2023-02-11T01:18:09.912Z,58.70
2023-02-11T01:18:44.261Z,59.00
2023-02-11T01:19:15.959Z,59.83
2023-02-11T01:19:47.703Z,56.90
2023-02-11T01:20:26.566Z,57.37
2023-02-11T01:20:58.227Z,58.50
2023-02-11T01:21:29.915Z,57.80
2023-02-11T01:22:01.611Z,57.33
2023-02-11T01:22:34.396Z,57.57
2023-02-11T01:23:06.044Z,58.00
2023-02-11T01:23:37.749Z,58.57
2023-02-11T01:24:09.412Z,58.90
2023-02-11T01:24:41.078Z,57.80
2023-02-11T01:25:12.766Z,58.93
2023-02-11T01:25:44.680Z,58.10
2023-02-11T01:26:16.577Z,58.63
2023-02-11T01:26:48.210Z,58.30
2023-02-11T01:27:19.984Z,55.93
2023-02-11T01:27:51.622Z,56.67
2023-02-11T01:28:26.270Z,57.87
2023-02-11T01:29:00.126Z,58.40
2023-02-11T01:29:31.771Z,57.27
2023-02-11T01:30:07.062Z,57.53
2023-02-11T01:30:39.539Z,58.07
2023-02-11T01:31:11.375Z,59.47
2023-02-11T01:31:43.052Z,57.43
2023-02-11T01:32:14.839Z,56.47
2023-02-11T01:32:46.541Z,56.13
2023-02-11T01:33:18.257Z,56.10
2023-02-11T01:33:49.952Z,55.90
2023-02-11T01:34:21.597Z,56.20
2023-02-11T01:34:53.270Z,55.87
2023-02-11T01:35:24.924Z,55.93
2023-02-11T01:36:00.805Z,56.60
2023-02-11T01:36:32.668Z,57.97
2023-02-11T01:37:04.351Z,57.57
2023-02-11T01:37:36.890Z,56.30
2023-02-11T01:38:14.837Z,55.93
2023-02-11T01:38:46.484Z,56.93
2023-02-11T01:39:18.268Z,55.67
2023-02-11T01:39:50.054Z,54.60
2023-02-11T01:40:21.770Z,54.90
2023-02-11T01:41:08.753Z,56.30
2023-02-11T01:41:40.496Z,54.30
2023-02-11T01:42:17.076Z,55.50
2023-02-11T01:42:50.957Z,56.87
2023-02-11T01:43:24.943Z,57.10
2023-02-11T01:43:56.618Z,56.93
2023-02-11T01:44:34.762Z,54.70
2023-02-11T01:45:43.801Z,56.33
2023-02-11T01:46:36.316Z,56.20
2023-02-11T01:47:08.079Z,57.40
2023-02-11T01:47:39.767Z,57.13
2023-02-11T01:48:15.477Z,56.47
2023-02-11T01:48:53.316Z,57.80
2023-02-11T01:49:30.277Z,57.63
2023-02-11T01:50:02.904Z,56.57
2023-02-11T01:50:35.026Z,56.63
2023-02-11T01:51:13.354Z,58.13
2023-02-11T01:51:51.765Z,58.67
2023-02-11T01:52:30.294Z,58.77
2023-02-11T01:53:22.348Z,59.87
2023-02-11T01:54:14.163Z,62.00
2023-02-11T01:55:12.077Z,61.00
2023-02-11T01:56:02.195Z,59.87
2023-02-11T01:56:58.000Z,57.10
2023-02-11T01:57:33.855Z,57.90
2023-02-11T01:58:06.319Z,56.40
2023-02-11T01:58:43.503Z,56.07
2023-02-11T01:59:26.911Z,56.97
2023-02-11T02:00:07.916Z,55.70
2023-02-11T02:00:41.695Z,56.53
2023-02-11T02:01:19.236Z,56.70
2023-02-11T02:01:57.496Z,56.37
2023-02-11T02:02:43.940Z,55.00
2023-02-11T02:03:22.800Z,53.63
2023-02-11T02:03:59.680Z,53.90
2023-02-11T02:04:38.900Z,57.03
2023-02-11T02:05:53.059Z,56.70
2023-02-11T02:06:35.429Z,57.03
2023-02-11T02:07:14.656Z,59.77
2023-02-11T02:08:13.018Z,59.37
2023-02-11T02:08:52.194Z,60.77
2023-02-11T02:09:29.028Z,59.43
2023-02-11T02:10:07.681Z,59.77
2023-02-11T02:10:43.952Z,60.13
2023-02-11T02:11:15.914Z,60.13
2023-02-11T02:11:47.824Z,60.97
2023-02-11T02:12:19.564Z,60.77
2023-02-11T02:12:51.475Z,60.57
2023-02-11T02:13:24.281Z,59.60
2023-02-11T02:13:55.954Z,58.87
2023-02-11T02:14:28.956Z,59.87
2023-02-11T02:15:33.417Z,59.10
2023-02-11T02:16:09.832Z,60.93
2023-02-11T02:16:41.987Z,62.43
2023-02-11T02:17:33.779Z,63.83
2023-02-11T02:18:10.991Z,65.27
2023-02-11T02:19:03.892Z,64.20
2023-02-11T02:19:50.413Z,65.53
2023-02-11T02:20:40.201Z,66.97
2023-02-11T02:21:33.133Z,67.23
2023-02-11T02:22:42.049Z,71.37
2023-02-11T02:23:41.648Z,70.50
2023-02-11T02:24:44.463Z,71.47
2023-02-11T02:25:42.747Z,71.77
2023-02-11T02:26:45.290Z,72.47
2023-02-11T02:27:44.707Z,72.33
2023-02-11T02:28:42.351Z,71.63
2023-02-11T02:29:22.632Z,72.17
2023-02-11T02:29:54.248Z,72.57
2023-02-11T02:30:48.303Z,73.47
2023-02-11T02:31:50.462Z,73.90
2023-02-11T02:32:31.229Z,74.70
2023-02-11T02:33:23.127Z,75.13
2023-02-11T02:34:02.479Z,73.40
2023-02-11T02:34:49.502Z,73.43
2023-02-11T02:35:59.734Z,73.07
2023-02-11T02:36:47.585Z,77.37
2023-02-11T02:37:28.502Z,77.40
2023-02-11T02:38:08.676Z,77.90
2023-02-11T02:38:40.329Z,76.37
2023-02-11T02:39:20.210Z,76.77
2023-02-11T02:39:51.924Z,79.93
2023-02-11T02:40:38.355Z,79.80
2023-02-11T02:41:15.670Z,78.77
2023-02-11T02:41:50.966Z,78.97
2023-02-11T02:42:23.812Z,79.70
2023-02-11T02:42:57.058Z,79.13
2023-02-11T02:43:30.355Z,78.93
2023-02-11T02:44:02.424Z,81.37
2023-02-11T02:44:34.366Z,80.40
2023-02-11T02:45:09.029Z,80.20
2023-02-11T02:45:40.763Z,80.03
2023-02-11T02:46:16.441Z,78.93
2023-02-11T02:46:48.201Z,80.43
2023-02-11T02:47:19.953Z,81.30
2023-02-11T02:47:51.609Z,78.63
2023-02-11T02:48:35.777Z,80.10
2023-02-11T02:49:13.572Z,80.23
2023-02-11T02:49:45.320Z,79.67
2023-02-11T02:50:25.315Z,79.47
2023-02-11T02:51:06.680Z,78.57
2023-02-11T02:52:00.033Z,80.33
2023-02-11T02:52:34.564Z,78.00
2023-02-11T02:53:08.853Z,79.83
2023-02-11T02:53:52.260Z,80.57
2023-02-11T02:54:37.281Z,80.57
2023-02-11T02:55:31.140Z,79.33
2023-02-11T02:56:16.988Z,81.03
2023-02-11T02:56:57.765Z,81.07
2023-02-11T02:58:01.543Z,81.70
2023-02-11T02:58:56.378Z,81.40
2023-02-11T03:00:09.498Z,80.40
2023-02-11T03:00:54.989Z,81.47
2023-02-11T03:01:38.678Z,80.33
2023-02-11T03:02:19.264Z,83.27
2023-02-11T03:03:06.938Z,82.80
2023-02-11T03:04:06.325Z,80.07
2023-02-11T03:04:51.936Z,81.13
2023-02-11T03:05:34.185Z,80.03
2023-02-11T03:06:26.158Z,80.30
2023-02-11T03:07:20.957Z,81.63
2023-02-11T03:08:09.691Z,79.70
2023-02-11T03:08:53.032Z,81.37
2023-02-11T03:09:46.945Z,80.43
2023-02-11T03:10:40.703Z,80.63
2023-02-11T03:11:17.284Z,79.50
2023-02-11T03:11:49.530Z,78.77
2023-02-11T03:12:24.508Z,79.43
2023-02-11T03:12:58.072Z,79.23
2023-02-11T03:13:33.999Z,77.17
2023-02-11T03:14:10.376Z,78.63
2023-02-11T03:14:42.187Z,80.20
2023-02-11T03:15:16.686Z,78.93
2023-02-11T03:15:52.458Z,80.13
2023-02-11T03:16:28.238Z,80.03
2023-02-11T03:17:04.411Z,80.40
2023-02-11T03:17:41.421Z,77.60
2023-02-11T03:18:18.694Z,76.87
2023-02-11T03:19:01.530Z,78.37
2023-02-11T03:19:41.193Z,77.80
2023-02-11T03:20:17.589Z,78.87
2023-02-11T03:20:53.416Z,76.73
2023-02-11T03:21:26.633Z,78.13
2023-02-11T03:21:58.527Z,78.30
2023-02-11T03:22:42.745Z,77.10
2023-02-11T03:23:23.802Z,77.63
2023-02-11T03:23:59.584Z,76.90
2023-02-11T03:24:35.145Z,76.07
2023-02-11T03:25:07.747Z,74.40
2023-02-11T03:25:49.166Z,75.50
2023-02-11T03:26:33.758Z,77.23
2023-02-11T03:27:29.211Z,79.53
2023-02-11T03:28:08.787Z,85.57
2023-02-11T03:28:50.266Z,85.80
2023-02-11T03:29:35.400Z,84.83
2023-02-11T03:30:18.710Z,85.50
2023-02-11T03:31:02.332Z,83.90
2023-02-11T03:31:45.996Z,82.53
2023-02-11T03:32:28.228Z,82.40
2023-02-11T03:33:14.152Z,83.50
2023-02-11T03:34:05.947Z,79.70
2023-02-11T03:34:45.979Z,79.43
2023-02-11T03:35:24.555Z,79.97
2023-02-11T03:36:15.214Z,79.07
2023-02-11T03:36:54.624Z,80.23
2023-02-11T03:37:33.472Z,79.60
2023-02-11T03:38:33.362Z,83.00
2023-02-11T03:39:07.360Z,85.37
2023-02-11T03:39:55.005Z,88.97
2023-02-11T03:40:32.595Z,95.03
2023-02-11T03:41:08.412Z,96.07
2023-02-11T03:41:43.035Z,98.03
2023-02-11T03:42:16.353Z,98.17
2023-02-11T03:43:01.187Z,95.27
2023-02-11T03:43:48.768Z,93.17
2023-02-11T03:44:25.322Z,93.50
2023-02-11T03:45:05.335Z,90.17
2023-02-11T03:45:39.535Z,85.63
2023-02-11T03:46:15.261Z,85.07
2023-02-11T03:46:51.556Z,86.63
2023-02-11T03:47:27.590Z,88.53
2023-02-11T03:48:11.796Z,88.23
2023-02-11T03:48:50.107Z,91.67
2023-02-11T03:49:27.741Z,89.77
2023-02-11T03:50:03.077Z,89.43
2023-02-11T03:50:37.425Z,87.90
2023-02-11T03:51:12.725Z,88.23
2023-02-11T03:51:45.152Z,88.77
2023-02-11T03:52:20.388Z,88.00
2023-02-11T03:52:54.154Z,88.50
2023-02-11T03:53:25.830Z,88.07
2023-02-11T03:54:02.132Z,89.10
2023-02-11T03:54:35.805Z,88.03
2023-02-11T03:55:13.426Z,89.60
2023-02-11T03:55:49.189Z,89.53
2023-02-11T03:56:26.899Z,91.23
2023-02-11T03:57:02.565Z,91.00
2023-02-11T03:57:34.771Z,89.00
2023-02-11T03:58:07.281Z,87.47
2023-02-11T03:58:38.975Z,86.10
2023-02-11T03:59:10.665Z,83.93
2023-02-11T03:59:57.785Z,84.93
2023-02-11T04:00:36.636Z,82.20
2023-02-11T04:01:09.901Z,81.87
2023-02-11T04:01:41.636Z,81.57
2023-02-11T04:02:13.329Z,81.97
2023-02-11T04:02:45.083Z,81.20
2023-02-11T04:03:16.922Z,80.50
2023-02-11T04:03:48.610Z,81.30
2023-02-11T04:04:20.593Z,82.23
2023-02-11T04:04:52.256Z,82.83
2023-02-11T04:05:23.927Z,82.73
2023-02-11T04:05:55.550Z,80.67
2023-02-11T04:06:27.249Z,80.90
2023-02-11T04:06:58.898Z,81.47
2023-02-11T04:07:30.895Z,81.67
2023-02-11T04:08:03.459Z,80.83
2023-02-11T04:08:35.187Z,80.90
2023-02-11T04:09:07.230Z,82.17
2023-02-11T04:09:39.044Z,82.33
2023-02-11T04:10:12.212Z,81.17
2023-02-11T04:10:43.878Z,81.70
2023-02-11T04:11:15.578Z,81.97
2023-02-11T04:11:47.246Z,81.23
2023-02-11T04:12:19.377Z,80.63
2023-02-11T04:12:51.095Z,81.53
2023-02-11T04:13:23.236Z,82.80
2023-02-11T04:13:54.933Z,82.67
2023-02-11T04:14:26.642Z,80.70
2023-02-11T04:14:58.565Z,82.17
2023-02-11T04:15:30.300Z,81.33
2023-02-11T04:16:02.026Z,83.37
2023-02-11T04:16:33.790Z,83.77
2023-02-11T04:17:05.910Z,82.57
2023-02-11T04:17:37.943Z,82.27
2023-02-11T04:18:09.681Z,81.57
2023-02-11T04:18:41.326Z,81.83
2023-02-11T04:19:13.009Z,83.90
2023-02-11T04:19:44.758Z,84.73
2023-02-11T04:20:16.583Z,85.07
2023-02-11T04:20:50.379Z,83.63
2023-02-11T04:21:22.032Z,83.83
2023-02-11T04:21:53.722Z,85.90
2023-02-11T04:22:25.519Z,86.40
2023-02-11T04:22:57.269Z,84.00
2023-02-11T04:23:29.174Z,83.23
2023-02-11T04:24:00.809Z,83.40
2023-02-11T04:24:32.530Z,82.93
2023-02-11T04:25:05.942Z,81.20
2023-02-11T04:25:37.641Z,82.43
2023-02-11T04:26:09.321Z,81.73
2023-02-11T04:26:41.111Z,81.17
2023-02-11T04:27:12.902Z,80.43
2023-02-11T04:27:44.597Z,80.50
2023-02-11T04:28:16.300Z,82.57
2023-02-11T04:28:47.996Z,82.37
2023-02-11T04:29:19.700Z,82.27
2023-02-11T04:29:51.555Z,83.07
2023-02-11T04:30:23.360Z,84.10
2023-02-11T04:30:56.102Z,84.13
2023-02-11T04:31:27.895Z,84.03
2023-02-11T04:31:59.583Z,82.93
2023-02-11T04:32:31.318Z,82.60
2023-02-11T04:33:03.152Z,84.87
2023-02-11T04:33:34.786Z,87.33
2023-02-11T04:34:06.458Z,88.07
2023-02-11T04:34:38.336Z,91.03
2023-02-11T04:35:10.309Z,92.87
2023-02-11T04:35:41.957Z,91.03
2023-02-11T04:36:13.644Z,89.60
2023-02-11T04:36:45.453Z,89.37
2023-02-11T04:37:17.129Z,86.90
2023-02-11T04:37:48.823Z,89.43
2023-02-11T04:38:20.571Z,90.03
2023-02-11T04:38:52.220Z,88.20
2023-02-11T04:39:23.890Z,84.37
2023-02-11T04:39:55.553Z,84.30
2023-02-11T04:40:27.300Z,84.03
2023-02-11T04:41:00.596Z,85.63
2023-02-11T04:41:32.281Z,82.23
2023-02-11T04:42:04.154Z,81.17
2023-02-11T04:42:35.760Z,82.53
2023-02-11T04:43:07.503Z,80.23
2023-02-11T04:43:39.264Z,81.87
2023-02-11T04:44:11.108Z,80.80
2023-02-11T04:44:42.789Z,80.30
2023-02-11T04:45:14.477Z,81.43
2023-02-11T04:45:46.153Z,82.57
2023-02-11T04:46:17.818Z,80.77
2023-02-11T04:46:49.528Z,81.83
2023-02-11T04:47:21.379Z,82.60
2023-02-11T04:47:53.052Z,84.40
2023-02-11T04:48:25.186Z,84.37
2023-02-11T04:48:57.638Z,85.03
2023-02-11T04:49:29.322Z,85.33
2023-02-11T04:50:01.061Z,85.73
2023-02-11T04:50:32.977Z,85.57
2023-02-11T04:51:05.023Z,86.03
2023-02-11T04:51:36.658Z,85.83
2023-02-11T04:52:09.278Z,85.77
2023-02-11T04:52:40.948Z,83.33
2023-02-11T04:53:12.601Z,82.40
2023-02-11T04:53:44.325Z,82.10
2023-02-11T04:54:16.605Z,83.57
2023-02-11T04:54:48.308Z,83.53
2023-02-11T04:55:20.054Z,81.33
2023-02-11T04:55:52.392Z,82.13
2023-02-11T04:56:24.390Z,82.30
2023-02-11T04:56:56.091Z,80.50
2023-02-11T04:57:27.793Z,82.10
2023-02-11T04:57:59.451Z,80.60
2023-02-11T04:58:31.289Z,80.73
2023-02-11T04:59:03.672Z,81.97
2023-02-11T04:59:35.374Z,82.07
2023-02-11T05:00:08.280Z,81.83
2023-02-11T05:00:39.986Z,82.87
2023-02-11T05:01:14.578Z,81.43
2023-02-11T05:01:46.335Z,83.90
2023-02-11T05:02:17.982Z,82.93
2023-02-11T05:02:49.666Z,82.50
2023-02-11T05:03:21.528Z,81.10
2023-02-11T05:03:53.555Z,80.97
2023-02-11T05:04:25.491Z,82.23
2023-02-11T05:04:57.180Z,83.77
2023-02-11T05:05:28.843Z,83.70
2023-02-11T05:06:00.563Z,81.60
2023-02-11T05:06:32.238Z,81.83
2023-02-11T05:07:03.910Z,84.50
2023-02-11T05:07:35.694Z,87.73
2023-02-11T05:08:08.542Z,88.87
2023-02-11T05:08:40.310Z,87.87
2023-02-11T05:09:14.992Z,85.97
2023-02-11T05:09:46.731Z,84.87
2023-02-11T05:10:18.433Z,85.23
2023-02-11T05:10:50.067Z,87.03
2023-02-11T05:11:24.987Z,85.40
2023-02-11T05:11:56.678Z,87.67
2023-02-11T05:12:28.326Z,86.30
2023-02-11T05:13:00.235Z,84.60
2023-02-11T05:13:32.393Z,85.33
2023-02-11T05:14:04.085Z,87.97
2023-02-11T05:14:35.767Z,86.90
2023-02-11T05:15:07.746Z,87.27
2023-02-11T05:15:39.397Z,88.00
2023-02-11T05:16:11.203Z,89.20
2023-02-11T05:16:42.987Z,93.07
2023-02-11T05:17:14.703Z,92.20
2023-02-11T05:17:46.580Z,92.63
2023-02-11T05:18:18.207Z,94.00
2023-02-11T05:18:52.443Z,94.00
2023-02-11T05:19:24.295Z,94.17
2023-02-11T05:19:55.965Z,95.63
2023-02-11T05:20:27.634Z,96.33
2023-02-11T05:20:59.300Z,96.27
2023-02-11T05:21:31.100Z,95.70
2023-02-11T05:22:03.755Z,93.93
2023-02-11T05:22:35.501Z,94.70
2023-02-11T05:23:07.222Z,94.67
2023-02-11T05:23:40.204Z,93.57
2023-02-11T05:24:11.853Z,90.87
2023-02-11T05:24:43.479Z,90.57
2023-02-11T05:25:15.153Z,90.50
2023-02-11T05:25:46.827Z,89.13
2023-02-11T05:26:19.049Z,89.03
2023-02-11T05:26:50.708Z,88.93
2023-02-11T05:27:22.519Z,89.03
2023-02-11T05:27:54.193Z,87.83
2023-02-11T05:28:28.260Z,90.17
2023-02-11T05:29:00.056Z,87.27
2023-02-11T05:29:32.045Z,86.30
2023-02-11T05:30:05.633Z,86.17
2023-02-11T05:30:37.310Z,84.23
2023-02-11T05:31:09.521Z,84.03
2023-02-11T05:31:41.217Z,84.07
2023-02-11T05:32:12.919Z,85.13
2023-02-11T05:32:44.566Z,83.80
2023-02-11T05:33:16.260Z,84.67
2023-02-11T05:33:47.915Z,83.33
2023-02-11T05:34:19.719Z,81.80
2023-02-11T05:34:51.410Z,82.93
2023-02-11T05:35:23.217Z,82.80
2023-02-11T05:36:08.305Z,83.27
2023-02-11T05:36:39.954Z,84.50
2023-02-11T05:37:11.734Z,84.97
2023-02-11T05:37:43.447Z,82.87
2023-02-11T05:38:15.225Z,82.23
2023-02-11T05:38:46.892Z,82.60
2023-02-11T05:39:18.555Z,81.93
2023-02-11T05:39:50.232Z,83.23
2023-02-11T05:40:21.955Z,82.77
2023-02-11T05:40:54.177Z,83.13
2023-02-11T05:41:25.851Z,85.83
2023-02-11T05:41:57.553Z,88.57
2023-02-11T05:42:29.210Z,92.47
2023-02-11T05:43:00.897Z,93.27
2023-02-11T05:43:34.829Z,98.33
2023-02-11T05:44:06.553Z,97.93
2023-02-11T05:44:38.251Z,99.13
2023-02-11T05:45:10.043Z,97.00
2023-02-11T05:45:41.708Z,93.97
2023-02-11T05:46:13.373Z,92.60
2023-02-11T05:46:45.199Z,90.83
2023-02-11T05:47:16.868Z,86.93
2023-02-11T05:47:48.579Z,86.27
2023-02-11T05:48:20.212Z,83.87
2023-02-11T05:48:51.949Z,85.03
2023-02-11T05:49:23.763Z,84.20
2023-02-11T05:49:55.386Z,83.23
2023-02-11T05:50:27.072Z,83.10
2023-02-11T05:50:59.342Z,82.33
2023-02-11T05:51:30.972Z,85.07
2023-02-11T05:52:02.688Z,83.73
2023-02-11T05:52:34.390Z,81.87
2023-02-11T05:53:06.836Z,81.73
2023-02-11T05:53:38.689Z,81.87
2023-02-11T05:54:10.661Z,81.30
2023-02-11T05:54:42.420Z,83.50
2023-02-11T05:55:14.210Z,81.57
2023-02-11T05:55:46.340Z,82.27
2023-02-11T05:56:18.148Z,81.93
2023-02-11T05:56:49.800Z,81.17
2023-02-11T05:57:21.473Z,81.60
2023-02-11T05:57:53.114Z,82.50
2023-02-11T05:58:24.783Z,82.50
2023-02-11T05:58:58.307Z,82.90
2023-02-11T05:59:29.939Z,82.80
2023-02-11T06:00:01.605Z,81.90
2023-02-11T06:00:33.591Z,82.63
2023-02-11T06:01:05.349Z,81.83
2023-02-11T06:01:37.046Z,82.80
2023-02-11T06:02:09.733Z,82.27
2023-02-11T06:02:44.001Z,81.40
2023-02-11T06:03:15.833Z,84.27
2023-02-11T06:03:50.045Z,88.17
2023-02-11T06:04:21.950Z,90.70
2023-02-11T06:04:53.643Z,90.90
2023-02-11T06:05:25.415Z,91.43
2023-02-11T06:05:57.073Z,94.40
2023-02-11T06:06:28.728Z,95.00
2023-02-11T06:07:00.519Z,95.03
2023-02-11T06:07:32.292Z,94.17
2023-02-11T06:08:04.127Z,94.03
2023-02-11T06:08:38.135Z,92.13
2023-02-11T06:09:11.817Z,91.83
2023-02-11T06:09:43.563Z,92.07
2023-02-11T06:10:15.349Z,91.47
2023-02-11T06:10:47.183Z,87.77
2023-02-11T06:11:18.915Z,88.00
2023-02-11T06:11:50.603Z,87.10
2023-02-11T06:12:22.241Z,84.03
2023-02-11T06:12:53.921Z,85.93
2023-02-11T06:13:25.633Z,83.83
2023-02-11T06:13:57.269Z,86.10
2023-02-11T06:14:28.922Z,86.50
2023-02-11T06:15:00.653Z,84.90
2023-02-11T06:15:32.285Z,85.07
2023-02-11T06:16:04.150Z,83.73
2023-02-11T06:16:35.855Z,83.60
2023-02-11T06:17:07.658Z,85.43
2023-02-11T06:17:39.458Z,84.73
2023-02-11T06:18:11.220Z,85.70
2023-02-11T06:18:42.927Z,85.43
2023-02-11T06:19:14.559Z,87.13
2023-02-11T06:19:46.241Z,86.60
2023-02-11T06:20:18.004Z,84.77
2023-02-11T06:20:49.653Z,87.33
2023-02-11T06:21:21.310Z,89.07
2023-02-11T06:21:53.002Z,95.47
2023-02-11T06:22:24.706Z,98.37
2023-02-11T06:22:56.383Z,99.67
2023-02-11T06:23:30.235Z,101.17
2023-02-11T06:24:02.149Z,102.10
2023-02-11T06:24:58.507Z,104.60
2023-02-11T06:25:25.388Z,105.63
2023-02-11T06:26:02.270Z,102.77
2023-02-11T06:26:34.016Z,105.50
2023-02-11T06:27:06.047Z,103.90
2023-02-11T06:27:38.156Z,100.73
2023-02-11T06:28:10.775Z,100.13
2023-02-11T06:28:42.493Z,98.60
2023-02-11T06:29:14.274Z,96.40
2023-02-11T06:29:46.957Z,97.20
2023-02-11T06:30:18.643Z,96.43
2023-02-11T06:30:50.429Z,95.67
2023-02-11T06:31:22.240Z,95.17
2023-02-11T06:31:54.041Z,96.70
2023-02-11T06:32:42.648Z,94.27
2023-02-11T06:33:15.814Z,93.23
2023-02-11T06:33:47.483Z,93.43
2023-02-11T06:34:19.204Z,92.83
2023-02-11T06:34:50.886Z,92.87
2023-02-11T06:35:22.596Z,90.67
2023-02-11T06:35:54.270Z,90.07
2023-02-11T06:36:26.015Z,91.17
2023-02-11T06:36:57.674Z,90.70
2023-02-11T06:37:29.332Z,92.87
2023-02-11T06:38:01.718Z,92.73
2023-02-11T06:38:33.395Z,90.70
2023-02-11T06:39:05.499Z,92.10
2023-02-11T06:39:37.221Z,94.20
2023-02-11T06:40:09.749Z,94.57
2023-02-11T06:40:41.939Z,93.03
2023-02-11T06:41:15.777Z,93.63
2023-02-11T06:41:47.451Z,92.50
2023-02-11T06:42:19.136Z,91.50
2023-02-11T06:42:50.766Z,89.70
2023-02-11T06:43:22.652Z,90.33
2023-02-11T06:43:54.641Z,93.67
2023-02-11T06:44:26.322Z,96.27
2023-02-11T06:44:58.056Z,97.33
2023-02-11T06:45:29.724Z,94.57
2023-02-11T06:46:01.372Z,96.60
2023-02-11T06:46:33.264Z,95.40
2023-02-11T06:47:05.173Z,92.47
2023-02-11T06:47:37.722Z,94.77
2023-02-11T06:48:09.458Z,96.27
2023-02-11T06:48:43.779Z,96.77
2023-02-11T06:49:16.722Z,95.40
2023-02-11T06:49:48.397Z,94.40
2023-02-11T06:50:20.232Z,94.83
2023-02-11T06:50:51.906Z,97.73
2023-02-11T06:51:23.640Z,98.37
2023-02-11T06:51:55.343Z,99.53
2023-02-11T06:52:27.102Z,98.67
2023-02-11T06:53:02.014Z,98.87
2023-02-11T06:53:38.639Z,97.77
2023-02-11T06:54:12.197Z,97.60
2023-02-11T06:54:43.850Z,98.33
2023-02-11T06:55:15.554Z,99.40
2023-02-11T06:55:47.316Z,98.77
2023-02-11T06:56:22.221Z,102.30
2023-02-11T06:56:53.922Z,104.23
2023-02-11T06:57:25.673Z,107.67
2023-02-11T06:57:57.388Z,110.00
2023-02-11T06:58:29.031Z,109.07
2023-02-11T06:59:01.152Z,109.27
2023-02-11T06:59:32.939Z,105.87
2023-02-11T07:00:05.881Z,107.27
2023-02-11T07:00:37.915Z,110.27
2023-02-11T07:01:14.058Z,114.40
2023-02-11T07:01:45.729Z,117.87
2023-02-11T07:02:19.649Z,115.63
2023-02-11T07:02:52.574Z,111.63
2023-02-11T07:03:24.328Z,109.77
2023-02-11T07:03:56.016Z,108.47
2023-02-11T07:04:27.740Z,106.80
2023-02-11T07:04:59.386Z,104.37
2023-02-11T07:05:31.076Z,102.53
2023-02-11T07:06:05.511Z,103.50
2023-02-11T07:06:38.023Z,104.27
2023-02-11T07:07:09.705Z,104.73
2023-02-11T07:07:41.378Z,105.60
2023-02-11T07:08:13.034Z,104.83
2023-02-11T07:08:45.998Z,104.33
2023-02-11T07:09:17.640Z,103.40
2023-02-11T07:09:49.301Z,102.93
2023-02-11T07:10:21.108Z,103.50
2023-02-11T07:10:52.789Z,103.27
2023-02-11T07:11:27.298Z,104.07
2023-02-11T07:11:59.007Z,103.97
2023-02-11T07:12:31.205Z,107.47
2023-02-11T07:13:02.825Z,118.10
2023-02-11T07:13:34.496Z,128.80
2023-02-11T07:14:08.593Z,138.20
2023-02-11T07:14:40.560Z,154.10
2023-02-11T07:15:12.318Z,170.33
2023-02-11T07:15:44.074Z,177.57
2023-02-11T07:16:18.529Z,187.27
2023-02-11T07:16:50.271Z,172.87
2023-02-11T07:17:21.980Z,158.20
2023-02-11T07:17:53.665Z,153.10
2023-02-11T07:18:25.320Z,150.07
2023-02-11T07:18:57.027Z,142.13
2023-02-11T07:19:28.720Z,136.93
2023-02-11T07:20:00.398Z,134.23
2023-02-11T07:20:32.033Z,135.10
2023-02-11T07:21:07.978Z,133.30
2023-02-11T07:21:40.167Z,127.87
2023-02-11T07:22:11.875Z,124.90
2023-02-11T07:22:43.540Z,125.87
2023-02-11T07:23:15.202Z,127.70
2023-02-11T07:23:48.554Z,129.03
2023-02-11T07:24:20.220Z,132.57
2023-02-11T07:24:51.982Z,135.93
2023-02-11T07:25:23.657Z,140.10